This is the latest recevied weather packets stored in our database for station/object IU0KRR-10. If no packets are shown the sender has not sent any weather packets the latest 10 day(s).
| Time | Temp. | Humidity | Pressure | Rain* | Wind** | Luminosity | Snow |
|---|---|---|---|---|---|---|---|
| 1777820332 | 30.56° C | 14% | 875.8 hPa | - | - | - | - |
| 1777820301 | 30.56° C | 14% | 875.8 hPa | - | - | - | - |
| 1777819400 | 30° C | 14% | 875.7 hPa | - | - | - | - |
| 1777818500 | 30° C | 16% | 875.9 hPa | - | - | - | - |
| 1777817600 | 30° C | 15% | 876 hPa | - | - | - | - |
| 1777816699 | 30° C | 15% | 876.1 hPa | - | - | - | - |
| 1777815798 | 30° C | 16% | 876.2 hPa | - | - | - | - |
| 1777814898 | 29.44° C | 18% | 876.2 hPa | - | - | - | - |
| 1777813998 | 29.44° C | 18% | 876.2 hPa | - | - | - | - |
| 1777813098 | 28.89° C | 18% | 876.3 hPa | - | - | - | - |
| 1777812197 | 28.89° C | 18% | 876.3 hPa | - | - | - | - |
| 1777811297 | 28.33° C | 22% | 876.4 hPa | - | - | - | - |
| 1777810397 | 27.78° C | 22% | 876.6 hPa | - | - | - | - |
| 1777809497 | 27.22° C | 23% | 876.4 hPa | - | - | - | - |
| 1777808597 | 27.22° C | 23% | 876.4 hPa | - | - | - | - |
| 1777807694 | 26.67° C | 24% | 876.3 hPa | - | - | - | - |
| 1777806793 | 26.11° C | 25% | 876.3 hPa | - | - | - | - |
| 1777805928 | 25.56° C | 26% | 876.5 hPa | - | - | - | - |
| 1777805893 | 25.56° C | 26% | 876.5 hPa | - | - | - | - |
| 1777804993 | 25° C | 26% | 876.5 hPa | - | - | - | - |
| 1777804093 | 23.89° C | 27% | 876.5 hPa | - | - | - | - |
| 1777803192 | 22.78° C | 27% | 876.7 hPa | - | - | - | - |
| 1777802292 | 21.67° C | 29% | 876.7 hPa | - | - | - | - |
| 1777801392 | 19.44° C | 32% | 876.8 hPa | - | - | - | - |
| 1777800492 | 16.11° C | 39% | 875.6 hPa | - | - | - | - |
* Rain since midnight (hover to see other rain measurements)
** Current wind speed in m/s (hover to see current wind gust speed)